sensor_id;sensor_type;location;lat;lon;timestamp;P1;durP1;ratioP1;P2;durP2;ratioP2
25549;SDS011;13444;50.562;7.262;2024-03-22T00:01:53;18.10;;;11.75;;
25549;SDS011;13444;50.562;7.262;2024-03-22T00:04:20;16.83;;;12.57;;
25549;SDS011;13444;50.562;7.262;2024-03-22T00:06:46;14.68;;;11.38;;
25549;SDS011;13444;50.562;7.262;2024-03-22T00:09:13;17.33;;;10.80;;
25549;SDS011;13444;50.562;7.262;2024-03-22T00:11:39;15.52;;;11.07;;
25549;SDS011;13444;50.562;7.262;2024-03-22T00:14:05;16.90;;;11.88;;
25549;SDS011;13444;50.562;7.262;2024-03-22T00:16:31;14.90;;;11.52;;
25549;SDS011;13444;50.562;7.262;2024-03-22T00:18:56;17.60;;;11.38;;
25549;SDS011;13444;50.562;7.262;2024-03-22T00:21:22;14.43;;;11.02;;
25549;SDS011;13444;50.562;7.262;2024-03-22T00:23:48;13.25;;;11.25;;
25549;SDS011;13444;50.562;7.262;2024-03-22T00:26:14;13.45;;;9.75;;
25549;SDS011;13444;50.562;7.262;2024-03-22T00:28:39;16.33;;;11.02;;
25549;SDS011;13444;50.562;7.262;2024-03-22T00:31:05;17.95;;;10.70;;
25549;SDS011;13444;50.562;7.262;2024-03-22T00:33:30;14.82;;;10.18;;
25549;SDS011;13444;50.562;7.262;2024-03-22T00:35:56;14.63;;;10.50;;
25549;SDS011;13444;50.562;7.262;2024-03-22T00:38:22;14.13;;;10.45;;
25549;SDS011;13444;50.562;7.262;2024-03-22T00:40:48;13.70;;;9.88;;
25549;SDS011;13444;50.562;7.262;2024-03-22T00:43:13;13.77;;;10.38;;
25549;SDS011;13444;50.562;7.262;2024-03-22T00:45:39;14.38;;;11.32;;
25549;SDS011;13444;50.562;7.262;2024-03-22T00:48:04;16.70;;;11.38;;
25549;SDS011;13444;50.562;7.262;2024-03-22T00:50:30;16.10;;;11.07;;
25549;SDS011;13444;50.562;7.262;2024-03-22T00:52:55;22.50;;;12.15;;
25549;SDS011;13444;50.562;7.262;2024-03-22T00:55:21;18.83;;;12.07;;
25549;SDS011;13444;50.562;7.262;2024-03-22T00:57:47;18.50;;;11.70;;
25549;SDS011;13444;50.562;7.262;2024-03-22T01:00:13;16.50;;;12.18;;
25549;SDS011;13444;50.562;7.262;2024-03-22T01:02:40;19.17;;;13.88;;
25549;SDS011;13444;50.562;7.262;2024-03-22T01:05:06;17.60;;;12.43;;
25549;SDS011;13444;50.562;7.262;2024-03-22T01:07:32;21.38;;;13.32;;
25549;SDS011;13444;50.562;7.262;2024-03-22T01:09:57;19.17;;;13.50;;
25549;SDS011;13444;50.562;7.262;2024-03-22T01:12:23;17.30;;;12.93;;
25549;SDS011;13444;50.562;7.262;2024-03-22T01:14:48;18.50;;;13.32;;
25549;SDS011;13444;50.562;7.262;2024-03-22T01:17:14;18.90;;;13.23;;
25549;SDS011;13444;50.562;7.262;2024-03-22T01:19:39;22.58;;;13.95;;
25549;SDS011;13444;50.562;7.262;2024-03-22T01:22:05;24.45;;;14.05;;
25549;SDS011;13444;50.562;7.262;2024-03-22T01:24:30;21.02;;;13.35;;
25549;SDS011;13444;50.562;7.262;2024-03-22T01:26:56;19.05;;;13.68;;
25549;SDS011;13444;50.562;7.262;2024-03-22T01:29:21;18.15;;;12.82;;
25549;SDS011;13444;50.562;7.262;2024-03-22T01:31:47;18.70;;;13.45;;
25549;SDS011;13444;50.562;7.262;2024-03-22T01:34:13;19.77;;;14.32;;
25549;SDS011;13444;50.562;7.262;2024-03-22T01:36:39;16.92;;;12.30;;
25549;SDS011;13444;50.562;7.262;2024-03-22T01:39:04;19.27;;;12.70;;
25549;SDS011;13444;50.562;7.262;2024-03-22T01:41:30;19.95;;;12.82;;
25549;SDS011;13444;50.562;7.262;2024-03-22T01:43:56;20.63;;;13.93;;
25549;SDS011;13444;50.562;7.262;2024-03-22T01:46:22;16.65;;;12.80;;
25549;SDS011;13444;50.562;7.262;2024-03-22T01:48:48;17.83;;;12.57;;
25549;SDS011;13444;50.562;7.262;2024-03-22T01:51:13;17.83;;;12.45;;
25549;SDS011;13444;50.562;7.262;2024-03-22T01:53:39;21.33;;;13.02;;
25549;SDS011;13444;50.562;7.262;2024-03-22T01:56:05;17.08;;;12.70;;
25549;SDS011;13444;50.562;7.262;2024-03-22T01:58:32;18.73;;;12.50;;
25549;SDS011;13444;50.562;7.262;2024-03-22T02:00:58;19.65;;;13.60;;
25549;SDS011;13444;50.562;7.262;2024-03-22T02:03:23;20.67;;;14.38;;
25549;SDS011;13444;50.562;7.262;2024-03-22T02:05:49;24.58;;;17.02;;
25549;SDS011;13444;50.562;7.262;2024-03-22T02:08:15;21.67;;;16.15;;
25549;SDS011;13444;50.562;7.262;2024-03-22T02:10:40;22.48;;;15.82;;
25549;SDS011;13444;50.562;7.262;2024-03-22T02:13:06;19.67;;;14.80;;
25549;SDS011;13444;50.562;7.262;2024-03-22T02:15:32;23.88;;;15.60;;
25549;SDS011;13444;50.562;7.262;2024-03-22T02:17:58;24.48;;;16.17;;
25549;SDS011;13444;50.562;7.262;2024-03-22T02:20:23;23.58;;;15.77;;
25549;SDS011;13444;50.562;7.262;2024-03-22T02:22:48;26.85;;;16.90;;
25549;SDS011;13444;50.562;7.262;2024-03-22T02:25:14;27.92;;;17.48;;
25549;SDS011;13444;50.562;7.262;2024-03-22T02:27:40;23.80;;;16.17;;
25549;SDS011;13444;50.562;7.262;2024-03-22T02:30:06;22.73;;;16.27;;
25549;SDS011;13444;50.562;7.262;2024-03-22T02:32:32;22.55;;;15.88;;
25549;SDS011;13444;50.562;7.262;2024-03-22T02:34:57;30.33;;;17.92;;
25549;SDS011;13444;50.562;7.262;2024-03-22T02:37:23;23.63;;;17.98;;
25549;SDS011;13444;50.562;7.262;2024-03-22T02:39:48;31.20;;;19.13;;
25549;SDS011;13444;50.562;7.262;2024-03-22T02:42:14;24.90;;;17.40;;
25549;SDS011;13444;50.562;7.262;2024-03-22T02:44:40;29.83;;;19.13;;
25549;SDS011;13444;50.562;7.262;2024-03-22T02:47:10;28.58;;;18.73;;
25549;SDS011;13444;50.562;7.262;2024-03-22T02:49:38;25.88;;;16.50;;
25549;SDS011;13444;50.562;7.262;2024-03-22T02:52:04;26.63;;;17.50;;
25549;SDS011;13444;50.562;7.262;2024-03-22T02:54:29;26.83;;;17.45;;
25549;SDS011;13444;50.562;7.262;2024-03-22T02:56:55;27.23;;;17.92;;
25549;SDS011;13444;50.562;7.262;2024-03-22T02:59:20;26.52;;;17.23;;
25549;SDS011;13444;50.562;7.262;2024-03-22T03:01:46;29.88;;;17.83;;
25549;SDS011;13444;50.562;7.262;2024-03-22T03:04:13;23.45;;;15.80;;
25549;SDS011;13444;50.562;7.262;2024-03-22T03:06:38;23.17;;;15.70;;
25549;SDS011;13444;50.562;7.262;2024-03-22T03:09:03;21.52;;;15.38;;
25549;SDS011;13444;50.562;7.262;2024-03-22T03:11:35;23.58;;;16.15;;
25549;SDS011;13444;50.562;7.262;2024-03-22T03:14:01;24.33;;;15.95;;
25549;SDS011;13444;50.562;7.262;2024-03-22T03:16:27;23.00;;;15.38;;
25549;SDS011;13444;50.562;7.262;2024-03-22T03:18:52;21.98;;;15.48;;
25549;SDS011;13444;50.562;7.262;2024-03-22T03:21:18;24.63;;;15.05;;
25549;SDS011;13444;50.562;7.262;2024-03-22T03:23:43;24.55;;;15.68;;
25549;SDS011;13444;50.562;7.262;2024-03-22T03:26:09;23.10;;;16.02;;
25549;SDS011;13444;50.562;7.262;2024-03-22T03:28:34;20.85;;;14.20;;
25549;SDS011;13444;50.562;7.262;2024-03-22T03:31:00;19.38;;;13.50;;
25549;SDS011;13444;50.562;7.262;2024-03-22T03:33:25;20.67;;;13.30;;
25549;SDS011;13444;50.562;7.262;2024-03-22T03:35:51;19.58;;;13.88;;
25549;SDS011;13444;50.562;7.262;2024-03-22T03:38:16;23.35;;;14.85;;
25549;SDS011;13444;50.562;7.262;2024-03-22T03:40:42;23.05;;;14.45;;
25549;SDS011;13444;50.562;7.262;2024-03-22T03:43:07;18.65;;;13.93;;
25549;SDS011;13444;50.562;7.262;2024-03-22T03:45:35;21.52;;;14.60;;
25549;SDS011;13444;50.562;7.262;2024-03-22T03:48:02;19.77;;;14.48;;
25549;SDS011;13444;50.562;7.262;2024-03-22T03:50:27;19.95;;;13.73;;
25549;SDS011;13444;50.562;7.262;2024-03-22T03:52:53;21.67;;;14.60;;
25549;SDS011;13444;50.562;7.262;2024-03-22T03:55:18;21.98;;;14.70;;
25549;SDS011;13444;50.562;7.262;2024-03-22T03:57:44;21.75;;;13.98;;
25549;SDS011;13444;50.562;7.262;2024-03-22T04:00:09;19.75;;;14.18;;
25549;SDS011;13444;50.562;7.262;2024-03-22T04:02:35;20.98;;;13.60;;
25549;SDS011;13444;50.562;7.262;2024-03-22T04:05:01;20.77;;;13.25;;
25549;SDS011;13444;50.562;7.262;2024-03-22T04:07:26;21.35;;;14.38;;
25549;SDS011;13444;50.562;7.262;2024-03-22T04:09:54;20.58;;;14.60;;
25549;SDS011;13444;50.562;7.262;2024-03-22T04:12:19;21.40;;;13.52;;
25549;SDS011;13444;50.562;7.262;2024-03-22T04:14:45;23.27;;;14.95;;
25549;SDS011;13444;50.562;7.262;2024-03-22T04:17:10;21.95;;;14.48;;
25549;SDS011;13444;50.562;7.262;2024-03-22T04:19:36;20.58;;;13.57;;
25549;SDS011;13444;50.562;7.262;2024-03-22T04:22:01;23.23;;;15.30;;
25549;SDS011;13444;50.562;7.262;2024-03-22T04:24:27;23.35;;;14.45;;
25549;SDS011;13444;50.562;7.262;2024-03-22T04:26:52;19.58;;;13.32;;
25549;SDS011;13444;50.562;7.262;2024-03-22T04:29:18;24.98;;;14.70;;
25549;SDS011;13444;50.562;7.262;2024-03-22T04:31:43;22.58;;;13.40;;
25549;SDS011;13444;50.562;7.262;2024-03-22T04:34:09;22.58;;;15.30;;
25549;SDS011;13444;50.562;7.262;2024-03-22T04:36:35;24.27;;;14.30;;
25549;SDS011;13444;50.562;7.262;2024-03-22T04:39:01;23.60;;;15.68;;
25549;SDS011;13444;50.562;7.262;2024-03-22T04:41:26;24.05;;;15.43;;
25549;SDS011;13444;50.562;7.262;2024-03-22T04:43:52;26.38;;;14.77;;
25549;SDS011;13444;50.562;7.262;2024-03-22T04:46:17;18.98;;;13.63;;
25549;SDS011;13444;50.562;7.262;2024-03-22T04:48:43;20.13;;;13.43;;
25549;SDS011;13444;50.562;7.262;2024-03-22T04:51:08;21.52;;;14.23;;
25549;SDS011;13444;50.562;7.262;2024-03-22T04:53:34;22.58;;;13.85;;
25549;SDS011;13444;50.562;7.262;2024-03-22T04:55:59;20.48;;;13.82;;
25549;SDS011;13444;50.562;7.262;2024-03-22T04:58:25;22.75;;;14.05;;
25549;SDS011;13444;50.562;7.262;2024-03-22T05:00:55;22.10;;;14.40;;
25549;SDS011;13444;50.562;7.262;2024-03-22T05:03:22;24.13;;;13.95;;
25549;SDS011;13444;50.562;7.262;2024-03-22T05:05:47;23.02;;;14.23;;
25549;SDS011;13444;50.562;7.262;2024-03-22T05:08:14;19.27;;;13.93;;
25549;SDS011;13444;50.562;7.262;2024-03-22T05:10:39;19.92;;;13.15;;
25549;SDS011;13444;50.562;7.262;2024-03-22T05:13:05;20.67;;;13.35;;
25549;SDS011;13444;50.562;7.262;2024-03-22T05:15:30;19.55;;;12.77;;
25549;SDS011;13444;50.562;7.262;2024-03-22T05:17:56;23.38;;;14.00;;
25549;SDS011;13444;50.562;7.262;2024-03-22T05:20:23;19.80;;;13.20;;
25549;SDS011;13444;50.562;7.262;2024-03-22T05:22:48;20.65;;;14.00;;
25549;SDS011;13444;50.562;7.262;2024-03-22T05:25:14;21.92;;;12.98;;
25549;SDS011;13444;50.562;7.262;2024-03-22T05:27:40;20.77;;;12.90;;
25549;SDS011;13444;50.562;7.262;2024-03-22T05:30:07;19.73;;;13.00;;
25549;SDS011;13444;50.562;7.262;2024-03-22T05:32:33;22.73;;;14.15;;
25549;SDS011;13444;50.562;7.262;2024-03-22T05:34:59;21.27;;;13.27;;
25549;SDS011;13444;50.562;7.262;2024-03-22T05:37:24;20.52;;;13.70;;
25549;SDS011;13444;50.562;7.262;2024-03-22T05:39:50;17.80;;;13.27;;
25549;SDS011;13444;50.562;7.262;2024-03-22T05:42:15;23.58;;;14.38;;
25549;SDS011;13444;50.562;7.262;2024-03-22T05:44:41;21.20;;;13.57;;
25549;SDS011;13444;50.562;7.262;2024-03-22T05:47:06;20.73;;;13.77;;
25549;SDS011;13444;50.562;7.262;2024-03-22T05:49:32;21.50;;;13.88;;
25549;SDS011;13444;50.562;7.262;2024-03-22T05:51:57;21.45;;;13.10;;
25549;SDS011;13444;50.562;7.262;2024-03-22T05:54:23;18.95;;;13.00;;
25549;SDS011;13444;50.562;7.262;2024-03-22T05:56:48;19.95;;;12.35;;
25549;SDS011;13444;50.562;7.262;2024-03-22T05:59:14;17.95;;;12.32;;
25549;SDS011;13444;50.562;7.262;2024-03-22T06:01:39;21.38;;;13.55;;
25549;SDS011;13444;50.562;7.262;2024-03-22T06:04:05;19.80;;;13.75;;
25549;SDS011;13444;50.562;7.262;2024-03-22T06:06:34;24.00;;;14.70;;
25549;SDS011;13444;50.562;7.262;2024-03-22T06:09:00;20.33;;;12.80;;
25549;SDS011;13444;50.562;7.262;2024-03-22T06:11:28;20.92;;;13.18;;
25549;SDS011;13444;50.562;7.262;2024-03-22T06:13:54;20.65;;;13.68;;
25549;SDS011;13444;50.562;7.262;2024-03-22T06:16:20;17.77;;;12.23;;
25549;SDS011;13444;50.562;7.262;2024-03-22T06:18:45;20.27;;;12.48;;
25549;SDS011;13444;50.562;7.262;2024-03-22T06:21:11;23.80;;;14.30;;
25549;SDS011;13444;50.562;7.262;2024-03-22T06:23:39;19.15;;;12.55;;
25549;SDS011;13444;50.562;7.262;2024-03-22T06:26:04;19.92;;;12.88;;
25549;SDS011;13444;50.562;7.262;2024-03-22T06:28:30;19.20;;;12.25;;
25549;SDS011;13444;50.562;7.262;2024-03-22T06:30:55;21.85;;;13.50;;
25549;SDS011;13444;50.562;7.262;2024-03-22T06:33:21;21.15;;;12.27;;
25549;SDS011;13444;50.562;7.262;2024-03-22T06:35:46;23.75;;;13.48;;
25549;SDS011;13444;50.562;7.262;2024-03-22T06:38:12;22.92;;;12.68;;
25549;SDS011;13444;50.562;7.262;2024-03-22T06:40:38;20.50;;;12.48;;
25549;SDS011;13444;50.562;7.262;2024-03-22T06:43:04;23.92;;;13.18;;
25549;SDS011;13444;50.562;7.262;2024-03-22T06:45:29;19.38;;;11.88;;
25549;SDS011;13444;50.562;7.262;2024-03-22T06:47:55;20.77;;;12.27;;
25549;SDS011;13444;50.562;7.262;2024-03-22T06:50:20;24.05;;;12.27;;
25549;SDS011;13444;50.562;7.262;2024-03-22T06:52:52;21.25;;;12.77;;
25549;SDS011;13444;50.562;7.262;2024-03-22T06:55:19;17.83;;;11.20;;
25549;SDS011;13444;50.562;7.262;2024-03-22T06:57:45;22.35;;;12.02;;
25549;SDS011;13444;50.562;7.262;2024-03-22T07:00:12;22.02;;;12.38;;
25549;SDS011;13444;50.562;7.262;2024-03-22T07:02:38;20.95;;;11.30;;
25549;SDS011;13444;50.562;7.262;2024-03-22T07:05:04;23.52;;;12.20;;
25549;SDS011;13444;50.562;7.262;2024-03-22T07:07:30;18.73;;;11.13;;
25549;SDS011;13444;50.562;7.262;2024-03-22T07:09:56;17.02;;;10.70;;
25549;SDS011;13444;50.562;7.262;2024-03-22T07:12:21;18.05;;;10.63;;
25549;SDS011;13444;50.562;7.262;2024-03-22T07:14:47;17.58;;;11.32;;
25549;SDS011;13444;50.562;7.262;2024-03-22T07:17:13;17.33;;;11.05;;
25549;SDS011;13444;50.562;7.262;2024-03-22T07:19:40;17.98;;;11.25;;
25549;SDS011;13444;50.562;7.262;2024-03-22T07:22:05;20.05;;;11.40;;
25549;SDS011;13444;50.562;7.262;2024-03-22T07:24:31;22.60;;;12.02;;
25549;SDS011;13444;50.562;7.262;2024-03-22T07:26:57;17.58;;;10.48;;
25549;SDS011;13444;50.562;7.262;2024-03-22T07:29:22;15.88;;;10.15;;
25549;SDS011;13444;50.562;7.262;2024-03-22T07:31:48;22.30;;;10.40;;
25549;SDS011;13444;50.562;7.262;2024-03-22T07:34:13;18.17;;;10.90;;
25549;SDS011;13444;50.562;7.262;2024-03-22T07:36:40;18.30;;;10.48;;
25549;SDS011;13444;50.562;7.262;2024-03-22T07:39:05;20.70;;;10.65;;
25549;SDS011;13444;50.562;7.262;2024-03-22T07:41:32;18.60;;;10.82;;
25549;SDS011;13444;50.562;7.262;2024-03-22T07:44:01;17.33;;;10.05;;
25549;SDS011;13444;50.562;7.262;2024-03-22T07:46:27;18.27;;;10.43;;
25549;SDS011;13444;50.562;7.262;2024-03-22T07:48:53;17.02;;;10.85;;
25549;SDS011;13444;50.562;7.262;2024-03-22T07:51:19;17.20;;;10.93;;
25549;SDS011;13444;50.562;7.262;2024-03-22T07:53:45;19.98;;;11.55;;
25549;SDS011;13444;50.562;7.262;2024-03-22T07:56:11;19.67;;;11.05;;
25549;SDS011;13444;50.562;7.262;2024-03-22T07:58:37;17.60;;;9.77;;
25549;SDS011;13444;50.562;7.262;2024-03-22T08:01:03;21.52;;;10.93;;
25549;SDS011;13444;50.562;7.262;2024-03-22T08:03:29;21.80;;;10.68;;
25549;SDS011;13444;50.562;7.262;2024-03-22T08:05:54;17.55;;;9.63;;
25549;SDS011;13444;50.562;7.262;2024-03-22T08:08:20;17.15;;;9.25;;
25549;SDS011;13444;50.562;7.262;2024-03-22T08:10:45;18.58;;;10.15;;
25549;SDS011;13444;50.562;7.262;2024-03-22T08:13:11;13.30;;;8.80;;
25549;SDS011;13444;50.562;7.262;2024-03-22T08:15:36;16.38;;;9.57;;
25549;SDS011;13444;50.562;7.262;2024-03-22T08:18:02;17.73;;;9.48;;
25549;SDS011;13444;50.562;7.262;2024-03-22T08:20:27;14.40;;;8.73;;
25549;SDS011;13444;50.562;7.262;2024-03-22T08:22:53;14.80;;;9.07;;
25549;SDS011;13444;50.562;7.262;2024-03-22T08:25:19;15.35;;;8.75;;
25549;SDS011;13444;50.562;7.262;2024-03-22T08:27:45;12.60;;;8.45;;
25549;SDS011;13444;50.562;7.262;2024-03-22T08:30:12;14.52;;;8.80;;
25549;SDS011;13444;50.562;7.262;2024-03-22T08:32:38;13.40;;;8.15;;
25549;SDS011;13444;50.562;7.262;2024-03-22T08:35:03;11.45;;;7.97;;
25549;SDS011;13444;50.562;7.262;2024-03-22T08:37:30;14.75;;;8.38;;
25549;SDS011;13444;50.562;7.262;2024-03-22T08:39:55;15.45;;;8.73;;
25549;SDS011;13444;50.562;7.262;2024-03-22T08:42:21;12.18;;;7.80;;
25549;SDS011;13444;50.562;7.262;2024-03-22T08:44:46;14.20;;;8.60;;
25549;SDS011;13444;50.562;7.262;2024-03-22T08:47:12;14.63;;;7.30;;
25549;SDS011;13444;50.562;7.262;2024-03-22T08:49:38;15.07;;;8.73;;
25549;SDS011;13444;50.562;7.262;2024-03-22T08:52:04;12.45;;;7.38;;
25549;SDS011;13444;50.562;7.262;2024-03-22T08:54:30;11.98;;;7.97;;
25549;SDS011;13444;50.562;7.262;2024-03-22T08:56:55;16.92;;;7.75;;
25549;SDS011;13444;50.562;7.262;2024-03-22T08:59:21;14.40;;;8.13;;
25549;SDS011;13444;50.562;7.262;2024-03-22T09:01:48;11.88;;;8.07;;
25549;SDS011;13444;50.562;7.262;2024-03-22T09:04:13;13.23;;;7.63;;
25549;SDS011;13444;50.562;7.262;2024-03-22T09:06:40;16.05;;;8.82;;
25549;SDS011;13444;50.562;7.262;2024-03-22T09:09:06;15.50;;;8.27;;
25549;SDS011;13444;50.562;7.262;2024-03-22T09:11:32;16.20;;;8.52;;
25549;SDS011;13444;50.562;7.262;2024-03-22T09:13:57;15.35;;;8.02;;
25549;SDS011;13444;50.562;7.262;2024-03-22T09:16:23;11.38;;;7.72;;
25549;SDS011;13444;50.562;7.262;2024-03-22T09:18:49;12.63;;;7.13;;
25549;SDS011;13444;50.562;7.262;2024-03-22T09:21:14;15.52;;;8.07;;
25549;SDS011;13444;50.562;7.262;2024-03-22T09:23:40;16.02;;;7.95;;
25549;SDS011;13444;50.562;7.262;2024-03-22T09:26:05;15.50;;;8.55;;
25549;SDS011;13444;50.562;7.262;2024-03-22T09:28:31;13.10;;;7.90;;
25549;SDS011;13444;50.562;7.262;2024-03-22T09:30:57;15.57;;;7.60;;
25549;SDS011;13444;50.562;7.262;2024-03-22T09:33:22;12.20;;;7.50;;
25549;SDS011;13444;50.562;7.262;2024-03-22T09:35:48;13.68;;;7.75;;
25549;SDS011;13444;50.562;7.262;2024-03-22T09:38:13;11.65;;;7.40;;
25549;SDS011;13444;50.562;7.262;2024-03-22T09:40:40;13.52;;;7.82;;
25549;SDS011;13444;50.562;7.262;2024-03-22T09:43:06;16.25;;;8.35;;
25549;SDS011;13444;50.562;7.262;2024-03-22T09:45:32;12.18;;;9.32;;
25549;SDS011;13444;50.562;7.262;2024-03-22T09:47:58;12.95;;;8.02;;
25549;SDS011;13444;50.562;7.262;2024-03-22T09:50:25;14.75;;;8.32;;
25549;SDS011;13444;50.562;7.262;2024-03-22T09:52:54;17.67;;;9.25;;
25549;SDS011;13444;50.562;7.262;2024-03-22T09:55:22;11.23;;;7.78;;
25549;SDS011;13444;50.562;7.262;2024-03-22T09:57:49;10.85;;;7.32;;
25549;SDS011;13444;50.562;7.262;2024-03-22T10:00:16;13.13;;;8.45;;
25549;SDS011;13444;50.562;7.262;2024-03-22T10:02:47;14.65;;;7.65;;
25549;SDS011;13444;50.562;7.262;2024-03-22T10:05:14;15.85;;;8.52;;
25549;SDS011;13444;50.562;7.262;2024-03-22T10:07:40;10.85;;;7.97;;
25549;SDS011;13444;50.562;7.262;2024-03-22T10:10:06;17.50;;;9.07;;
25549;SDS011;13444;50.562;7.262;2024-03-22T10:12:32;10.52;;;7.60;;
25549;SDS011;13444;50.562;7.262;2024-03-22T10:14:58;16.05;;;9.43;;
25549;SDS011;13444;50.562;7.262;2024-03-22T10:17:26;12.63;;;8.10;;
25549;SDS011;13444;50.562;7.262;2024-03-22T10:19:51;16.08;;;9.30;;
25549;SDS011;13444;50.562;7.262;2024-03-22T10:22:17;17.15;;;10.40;;
25549;SDS011;13444;50.562;7.262;2024-03-22T10:24:43;14.93;;;9.75;;
25549;SDS011;13444;50.562;7.262;2024-03-22T10:27:09;15.60;;;9.30;;
25549;SDS011;13444;50.562;7.262;2024-03-22T10:29:35;16.98;;;10.43;;
25549;SDS011;13444;50.562;7.262;2024-03-22T10:32:01;13.02;;;9.25;;
25549;SDS011;13444;50.562;7.262;2024-03-22T10:34:27;12.27;;;7.97;;
25549;SDS011;13444;50.562;7.262;2024-03-22T10:36:53;13.90;;;8.98;;
25549;SDS011;13444;50.562;7.262;2024-03-22T10:39:21;15.88;;;9.77;;
25549;SDS011;13444;50.562;7.262;2024-03-22T10:41:48;13.60;;;9.35;;
25549;SDS011;13444;50.562;7.262;2024-03-22T10:44:14;15.70;;;9.57;;
25549;SDS011;13444;50.562;7.262;2024-03-22T10:46:44;13.75;;;8.68;;
25549;SDS011;13444;50.562;7.262;2024-03-22T10:49:17;17.75;;;9.02;;
25549;SDS011;13444;50.562;7.262;2024-03-22T10:51:48;17.00;;;9.57;;
25549;SDS011;13444;50.562;7.262;2024-03-22T10:54:18;14.57;;;8.93;;
25549;SDS011;13444;50.562;7.262;2024-03-22T10:56:45;14.43;;;9.23;;
25549;SDS011;13444;50.562;7.262;2024-03-22T10:59:13;13.43;;;9.30;;
25549;SDS011;13444;50.562;7.262;2024-03-22T11:01:45;13.45;;;8.65;;
25549;SDS011;13444;50.562;7.262;2024-03-22T11:04:11;13.40;;;8.63;;
25549;SDS011;13444;50.562;7.262;2024-03-22T11:06:36;12.05;;;8.27;;
25549;SDS011;13444;50.562;7.262;2024-03-22T11:09:02;15.07;;;8.32;;
25549;SDS011;13444;50.562;7.262;2024-03-22T11:11:31;14.45;;;8.48;;
25549;SDS011;13444;50.562;7.262;2024-03-22T11:14:02;14.48;;;8.45;;
25549;SDS011;13444;50.562;7.262;2024-03-22T11:16:28;16.20;;;8.48;;
25549;SDS011;13444;50.562;7.262;2024-03-22T11:18:54;10.77;;;7.47;;
25549;SDS011;13444;50.562;7.262;2024-03-22T11:21:20;15.70;;;8.23;;
25549;SDS011;13444;50.562;7.262;2024-03-22T11:23:46;13.00;;;7.82;;
25549;SDS011;13444;50.562;7.262;2024-03-22T11:26:11;12.43;;;7.68;;
25549;SDS011;13444;50.562;7.262;2024-03-22T11:28:38;11.80;;;6.68;;
25549;SDS011;13444;50.562;7.262;2024-03-22T11:31:04;10.43;;;6.88;;
25549;SDS011;13444;50.562;7.262;2024-03-22T11:33:30;11.65;;;6.65;;
25549;SDS011;13444;50.562;7.262;2024-03-22T11:35:58;11.75;;;7.07;;
25549;SDS011;13444;50.562;7.262;2024-03-22T11:38:25;11.85;;;7.38;;
25549;SDS011;13444;50.562;7.262;2024-03-22T11:40:52;10.88;;;6.82;;
25549;SDS011;13444;50.562;7.262;2024-03-22T11:43:18;11.02;;;6.35;;
25549;SDS011;13444;50.562;7.262;2024-03-22T11:45:44;11.43;;;7.15;;
25549;SDS011;13444;50.562;7.262;2024-03-22T11:48:10;11.15;;;6.13;;
25549;SDS011;13444;50.562;7.262;2024-03-22T11:50:38;9.90;;;6.05;;
25549;SDS011;13444;50.562;7.262;2024-03-22T11:53:07;8.80;;;6.18;;
25549;SDS011;13444;50.562;7.262;2024-03-22T11:55:35;8.50;;;6.18;;
25549;SDS011;13444;50.562;7.262;2024-03-22T11:58:00;9.15;;;5.38;;
25549;SDS011;13444;50.562;7.262;2024-03-22T12:00:26;10.93;;;6.35;;
25549;SDS011;13444;50.562;7.262;2024-03-22T12:02:53;9.77;;;5.63;;
25549;SDS011;13444;50.562;7.262;2024-03-22T12:05:19;8.15;;;5.20;;
25549;SDS011;13444;50.562;7.262;2024-03-22T12:07:45;11.70;;;5.57;;
25549;SDS011;13444;50.562;7.262;2024-03-22T12:10:11;9.57;;;5.55;;
25549;SDS011;13444;50.562;7.262;2024-03-22T12:12:37;8.43;;;5.40;;
25549;SDS011;13444;50.562;7.262;2024-03-22T12:15:05;7.97;;;5.35;;
25549;SDS011;13444;50.562;7.262;2024-03-22T12:17:31;10.30;;;5.18;;
25549;SDS011;13444;50.562;7.262;2024-03-22T12:19:56;9.75;;;4.97;;
25549;SDS011;13444;50.562;7.262;2024-03-22T12:22:22;10.50;;;5.13;;
25549;SDS011;13444;50.562;7.262;2024-03-22T12:24:50;7.05;;;4.85;;
25549;SDS011;13444;50.562;7.262;2024-03-22T12:27:16;9.52;;;4.55;;
25549;SDS011;13444;50.562;7.262;2024-03-22T12:29:41;9.88;;;5.75;;
25549;SDS011;13444;50.562;7.262;2024-03-22T12:32:07;9.25;;;5.30;;
25549;SDS011;13444;50.562;7.262;2024-03-22T12:34:33;8.68;;;5.60;;
25549;SDS011;13444;50.562;7.262;2024-03-22T12:36:59;7.38;;;4.85;;
25549;SDS011;13444;50.562;7.262;2024-03-22T12:39:25;11.02;;;5.07;;
25549;SDS011;13444;50.562;7.262;2024-03-22T12:41:50;12.35;;;5.63;;
25549;SDS011;13444;50.562;7.262;2024-03-22T12:44:16;9.98;;;5.50;;
25549;SDS011;13444;50.562;7.262;2024-03-22T12:46:42;7.45;;;5.15;;
25549;SDS011;13444;50.562;7.262;2024-03-22T12:49:09;6.63;;;4.95;;
25549;SDS011;13444;50.562;7.262;2024-03-22T12:51:35;11.68;;;5.53;;
25549;SDS011;13444;50.562;7.262;2024-03-22T12:54:01;8.10;;;5.18;;
25549;SDS011;13444;50.562;7.262;2024-03-22T12:56:27;9.18;;;5.90;;
25549;SDS011;13444;50.562;7.262;2024-03-22T12:58:53;6.97;;;4.60;;
25549;SDS011;13444;50.562;7.262;2024-03-22T13:01:19;10.68;;;5.63;;
25549;SDS011;13444;50.562;7.262;2024-03-22T13:03:44;9.27;;;5.40;;
25549;SDS011;13444;50.562;7.262;2024-03-22T13:06:10;5.90;;;4.85;;
25549;SDS011;13444;50.562;7.262;2024-03-22T13:08:35;10.73;;;5.15;;
25549;SDS011;13444;50.562;7.262;2024-03-22T13:11:01;9.23;;;4.65;;
25549;SDS011;13444;50.562;7.262;2024-03-22T13:13:27;8.23;;;4.80;;
25549;SDS011;13444;50.562;7.262;2024-03-22T13:15:52;9.00;;;4.50;;
25549;SDS011;13444;50.562;7.262;2024-03-22T13:18:18;9.40;;;5.43;;
25549;SDS011;13444;50.562;7.262;2024-03-22T13:20:43;9.35;;;5.60;;
25549;SDS011;13444;50.562;7.262;2024-03-22T13:23:12;9.95;;;5.38;;
25549;SDS011;13444;50.562;7.262;2024-03-22T13:25:38;7.85;;;4.95;;
25549;SDS011;13444;50.562;7.262;2024-03-22T13:28:04;10.57;;;5.20;;
25549;SDS011;13444;50.562;7.262;2024-03-22T13:30:32;6.07;;;4.20;;
25549;SDS011;13444;50.562;7.262;2024-03-22T13:33:00;6.78;;;3.85;;
25549;SDS011;13444;50.562;7.262;2024-03-22T13:35:26;6.25;;;4.32;;
25549;SDS011;13444;50.562;7.262;2024-03-22T13:37:51;7.38;;;4.18;;
25549;SDS011;13444;50.562;7.262;2024-03-22T13:40:17;5.13;;;3.22;;
25549;SDS011;13444;50.562;7.262;2024-03-22T13:42:42;4.75;;;3.40;;
25549;SDS011;13444;50.562;7.262;2024-03-22T13:45:08;6.25;;;3.30;;
25549;SDS011;13444;50.562;7.262;2024-03-22T13:47:33;6.07;;;3.63;;
25549;SDS011;13444;50.562;7.262;2024-03-22T13:50:02;6.55;;;4.03;;
25549;SDS011;13444;50.562;7.262;2024-03-22T13:52:29;9.15;;;5.22;;
25549;SDS011;13444;50.562;7.262;2024-03-22T13:54:55;9.15;;;5.03;;
25549;SDS011;13444;50.562;7.262;2024-03-22T13:57:21;7.85;;;5.53;;
25549;SDS011;13444;50.562;7.262;2024-03-22T13:59:46;9.60;;;4.95;;
25549;SDS011;13444;50.562;7.262;2024-03-22T14:02:12;8.82;;;4.68;;
25549;SDS011;13444;50.562;7.262;2024-03-22T14:04:38;10.73;;;4.85;;
25549;SDS011;13444;50.562;7.262;2024-03-22T14:07:03;6.40;;;4.13;;
25549;SDS011;13444;50.562;7.262;2024-03-22T14:09:30;6.82;;;4.20;;
25549;SDS011;13444;50.562;7.262;2024-03-22T14:11:56;7.03;;;4.60;;
25549;SDS011;13444;50.562;7.262;2024-03-22T14:14:22;6.22;;;4.03;;
25549;SDS011;13444;50.562;7.262;2024-03-22T14:16:48;9.63;;;4.25;;
25549;SDS011;13444;50.562;7.262;2024-03-22T14:19:14;8.18;;;4.25;;
25549;SDS011;13444;50.562;7.262;2024-03-22T14:21:40;8.43;;;4.72;;